Time,TemperatureF,DewpointF,PressureIn,WindDirection,WindDirectionDegrees,WindSpeedMPH,WindSpeedGustMPH,Humidity,HourlyPrecipIn,Conditions,Clouds,dailyrainin,SolarRadiationWatts/m^2,SoftwareType,DateUTC
2013-07-09 00:01:00,81.9,80.2,30.11,East,89,0.0,13.0,95,0.00,,,0.00,0.0,meteohub,2013-07-09 04:01:00,
2013-07-09 00:07:00,81.9,80.6,30.11,East,92,0.0,13.0,96,0.00,,,0.00,0.0,meteohub,2013-07-09 04:07:00,
2013-07-09 00:12:00,81.9,80.6,30.11,SE,124,5.0,11.0,96,0.00,,,0.00,0.0,meteohub,2013-07-09 04:12:00,
2013-07-09 00:17:00,81.7,80.4,30.11,ENE,62,0.0,11.0,96,0.00,,,0.00,0.0,meteohub,2013-07-09 04:17:00,
2013-07-09 00:22:00,81.7,80.8,30.11,East,90,7.0,11.0,97,0.00,,,0.00,0.0,meteohub,2013-07-09 04:22:00,
2013-07-09 00:27:00,81.3,80.4,30.11,ENE,78,0.0,10.0,97,0.00,,,0.00,0.0,meteohub,2013-07-09 04:27:00,
2013-07-09 00:32:00,81.1,80.6,30.10,ESE,119,0.0,10.0,98,0.00,,,0.00,0.0,meteohub,2013-07-09 04:32:00,
2013-07-09 00:37:00,81.1,80.6,30.10,East,100,6.0,10.0,98,0.00,,,0.00,0.0,meteohub,2013-07-09 04:37:00,
2013-07-09 00:42:00,81.1,80.6,30.10,ESE,104,2.0,8.0,98,0.00,,,0.00,0.0,meteohub,2013-07-09 04:42:00,
2013-07-09 00:47:00,81.0,80.6,30.10,ENE,61,0.0,12.0,99,0.00,,,0.00,0.0,meteohub,2013-07-09 04:47:00,
2013-07-09 00:52:00,80.8,80.4,30.10,ENE,69,8.0,12.0,99,0.00,,,0.00,0.0,meteohub,2013-07-09 04:52:00,
2013-07-09 00:57:00,80.8,80.4,30.09,East,95,0.0,12.0,99,0.00,,,0.00,0.0,meteohub,2013-07-09 04:57:00,
2013-07-09 01:02:00,80.4,80.1,30.09,East,97,4.0,11.0,99,0.00,,,0.00,0.0,meteohub,2013-07-09 05:02:00,
2013-07-09 01:07:00,80.8,80.8,30.09,East,85,0.0,11.0,100,0.00,,,0.00,0.0,meteohub,2013-07-09 05:07:00,
2013-07-09 01:12:00,80.4,80.1,30.09,ENE,78,8.0,10.0,99,0.00,,,0.00,0.0,meteohub,2013-07-09 05:12:00,
2013-07-09 01:17:00,80.4,80.1,30.09,ENE,76,6.0,9.0,99,0.00,,,0.00,0.0,meteohub,2013-07-09 05:17:00,
2013-07-09 01:22:00,80.8,80.4,30.09,NE,56,0.0,12.0,99,0.00,,,0.00,0.0,meteohub,2013-07-09 05:22:00,
2013-07-09 01:27:00,80.8,80.4,30.08,East,86,7.0,12.0,99,0.00,,,0.00,0.0,meteohub,2013-07-09 05:27:00,
2013-07-09 01:32:00,81.0,80.6,30.08,ENE,69,9.0,12.0,99,0.00,,,0.00,0.0,meteohub,2013-07-09 05:32:00,
2013-07-09 01:37:00,80.2,79.9,30.08,East,80,3.0,18.0,99,0.04,,,0.04,0.0,meteohub,2013-07-09 05:37:00,
2013-07-09 01:43:00,80.2,80.2,30.08,East,96,8.0,18.0,100,0.04,,,0.04,0.0,meteohub,2013-07-09 05:43:00,
2013-07-09 01:48:00,80.1,80.1,30.08,East,83,0.0,18.0,100,0.04,,,0.04,0.0,meteohub,2013-07-09 05:48:00,
2013-07-09 01:53:00,79.9,79.9,30.08,SE,127,0.0,13.0,100,0.04,,,0.04,0.0,meteohub,2013-07-09 05:53:00,
2013-07-09 01:58:00,79.9,79.9,30.07,East,93,0.0,13.0,100,0.04,,,0.04,0.0,meteohub,2013-07-09 05:58:00,
2013-07-09 02:03:00,79.9,79.9,30.07,ESE,112,0.0,11.0,100,0.04,,,0.04,0.0,meteohub,2013-07-09 06:03:00,
2013-07-09 02:08:00,79.9,79.9,30.07,ESE,110,0.0,8.0,100,0.04,,,0.04,0.0,meteohub,2013-07-09 06:08:00,
2013-07-09 02:13:00,79.9,79.9,30.07,East,93,5.0,8.0,100,0.04,,,0.04,0.0,meteohub,2013-07-09 06:13:00,
2013-07-09 02:18:00,79.9,79.9,30.07,East,100,0.0,8.0,100,0.04,,,0.04,0.0,meteohub,2013-07-09 06:18:00,
2013-07-09 02:23:00,79.9,79.9,30.07,SE,140,5.0,9.0,100,0.05,,,0.05,0.0,meteohub,2013-07-09 06:23:00,
2013-07-09 02:28:00,79.3,79.3,30.07,SE,141,9.0,19.0,100,0.14,,,0.12,0.0,meteohub,2013-07-09 06:28:00,
2013-07-09 02:33:00,78.8,78.8,30.07,SE,126,9.0,19.0,100,0.14,,,0.15,0.0,meteohub,2013-07-09 06:33:00,
2013-07-09 02:38:00,78.6,78.6,30.07,East,96,0.0,19.0,100,0.12,,,0.16,0.0,meteohub,2013-07-09 06:38:00,
2013-07-09 02:43:00,78.4,78.4,30.07,ESE,107,0.0,12.0,100,0.12,,,0.16,0.0,meteohub,2013-07-09 06:43:00,
2013-07-09 02:48:00,78.1,78.1,30.07,East,90,0.0,9.0,100,0.12,,,0.16,0.0,meteohub,2013-07-09 06:48:00,
2013-07-09 02:53:00,78.1,78.1,30.07,East,99,0.0,8.0,100,0.12,,,0.16,0.0,meteohub,2013-07-09 06:53:00,
2013-07-09 02:58:00,77.9,77.9,30.07,ESE,113,4.0,8.0,100,0.12,,,0.16,0.0,meteohub,2013-07-09 06:58:00,
2013-07-09 03:03:00,77.9,77.9,30.07,ENE,78,0.0,8.0,100,0.12,,,0.16,0.0,meteohub,2013-07-09 07:03:00,
2013-07-09 03:08:00,77.7,77.7,30.07,ESE,114,0.0,8.0,100,0.12,,,0.16,0.0,meteohub,2013-07-09 07:08:00,
2013-07-09 03:13:00,77.9,77.9,30.07,ESE,121,0.0,8.0,100,0.12,,,0.16,0.0,meteohub,2013-07-09 07:13:00,
2013-07-09 03:18:00,77.7,77.7,30.07,ESE,116,0.0,8.0,100,0.12,,,0.16,0.0,meteohub,2013-07-09 07:18:00,
2013-07-09 03:23:00,77.7,77.7,30.07,ESE,119,0.0,6.0,100,0.11,,,0.16,0.0,meteohub,2013-07-09 07:23:00,
2013-07-09 03:28:00,77.7,77.7,30.06,ESE,119,0.0,5.0,100,0.01,,,0.16,0.0,meteohub,2013-07-09 07:28:00,
2013-07-09 03:33:00,77.9,77.9,30.06,ESE,119,0.0,5.0,100,0.00,,,0.16,0.0,meteohub,2013-07-09 07:33:00,
2013-07-09 03:39:00,77.9,77.9,30.06,ESE,119,0.0,0.0,100,0.00,,,0.16,0.0,meteohub,2013-07-09 07:39:00,
2013-07-09 03:43:00,77.9,77.9,30.06,ESE,119,0.0,0.0,100,0.00,,,0.16,0.0,meteohub,2013-07-09 07:43:00,
2013-07-09 03:49:00,77.9,77.9,30.06,ESE,117,0.0,0.0,100,0.00,,,0.16,0.0,meteohub,2013-07-09 07:49:00,
2013-07-09 03:54:00,77.9,77.9,30.06,ESE,119,0.0,0.0,100,0.00,,,0.16,0.0,meteohub,2013-07-09 07:54:00,
2013-07-09 03:59:00,77.9,77.9,30.07,ESE,119,0.0,0.0,100,0.00,,,0.16,0.0,meteohub,2013-07-09 07:59:00,
2013-07-09 04:04:00,77.9,77.9,30.07,ESE,119,0.0,0.0,100,0.00,,,0.16,0.0,meteohub,2013-07-09 08:04:00,
2013-07-09 04:09:00,77.9,77.9,30.07,ESE,117,0.0,0.0,100,0.00,,,0.16,0.0,meteohub,2013-07-09 08:09:00,
2013-07-09 04:14:00,78.1,78.1,30.06,ESE,117,0.0,0.0,100,0.00,,,0.16,0.0,meteohub,2013-07-09 08:14:00,
2013-07-09 04:19:00,78.1,78.1,30.06,ESE,117,0.0,0.0,100,0.00,,,0.16,0.0,meteohub,2013-07-09 08:19:00,
2013-07-09 04:24:00,78.1,78.1,30.06,ESE,117,0.0,0.0,100,0.00,,,0.16,0.0,meteohub,2013-07-09 08:24:00,
2013-07-09 04:29:00,78.1,78.1,30.07,ESE,117,0.0,0.0,100,0.00,,,0.16,0.0,meteohub,2013-07-09 08:29:00,
2013-07-09 04:34:00,78.1,78.1,30.07,ESE,114,0.0,1.0,100,0.00,,,0.16,0.0,meteohub,2013-07-09 08:34:00,
2013-07-09 04:39:00,78.1,78.1,30.07,SE,124,0.0,1.0,100,0.00,,,0.16,0.0,meteohub,2013-07-09 08:39:00,
2013-07-09 04:44:00,78.3,78.3,30.07,SE,124,0.0,5.0,100,0.00,,,0.16,0.0,meteohub,2013-07-09 08:44:00,
2013-07-09 04:49:00,78.3,78.3,30.07,ESE,121,0.0,5.0,100,0.00,,,0.16,0.0,meteohub,2013-07-09 08:49:00,
2013-07-09 04:54:00,78.1,78.1,30.07,East,80,0.0,5.0,100,0.00,,,0.16,0.0,meteohub,2013-07-09 08:54:00,
2013-07-09 04:59:00,78.1,78.1,30.07,East,80,0.0,0.0,100,0.00,,,0.16,0.0,meteohub,2013-07-09 08:59:00,
2013-07-09 05:04:00,78.1,78.1,30.07,East,85,0.0,0.0,100,0.00,,,0.16,0.0,meteohub,2013-07-09 09:04:00,
2013-07-09 05:09:00,78.1,78.1,30.07,East,90,0.0,0.0,100,0.00,,,0.16,0.0,meteohub,2013-07-09 09:09:00,
2013-07-09 05:14:00,78.1,78.1,30.06,East,90,0.0,0.0,100,0.00,,,0.16,0.0,meteohub,2013-07-09 09:14:00,
2013-07-09 05:19:00,78.1,78.1,30.06,East,93,0.0,0.0,100,0.00,,,0.16,0.0,meteohub,2013-07-09 09:19:00,
2013-07-09 05:24:00,78.1,78.1,30.06,East,92,0.0,0.0,100,0.00,,,0.16,0.0,meteohub,2013-07-09 09:24:00,
2013-07-09 05:29:00,78.1,78.1,30.07,East,97,0.0,0.0,100,0.00,,,0.16,0.0,meteohub,2013-07-09 09:29:00,
2013-07-09 05:34:00,78.1,78.1,30.07,East,97,0.0,1.0,100,0.00,,,0.16,0.0,meteohub,2013-07-09 09:34:00,
2013-07-09 05:39:00,78.1,78.1,30.07,East,99,0.0,1.0,100,0.00,,,0.16,0.0,meteohub,2013-07-09 09:39:00,
2013-07-09 05:44:00,78.3,78.3,30.07,East,99,0.0,1.0,100,0.00,,,0.16,0.0,meteohub,2013-07-09 09:44:00,
2013-07-09 05:49:00,78.3,78.3,30.07,East,97,0.0,0.0,100,0.00,,,0.16,0.0,meteohub,2013-07-09 09:49:00,
2013-07-09 05:54:00,78.4,78.4,30.07,East,97,0.0,0.0,100,0.00,,,0.16,0.0,meteohub,2013-07-09 09:54:00,
2013-07-09 05:59:00,78.4,78.4,30.08,East,97,0.0,0.0,100,0.00,,,0.16,0.0,meteohub,2013-07-09 09:59:00,
2013-07-09 06:05:00,78.6,78.6,30.08,East,97,0.0,0.0,100,0.00,,,0.16,0.0,meteohub,2013-07-09 10:05:00,
2013-07-09 06:10:00,78.6,78.6,30.08,East,99,0.0,0.0,100,0.00,,,0.16,7.0,meteohub,2013-07-09 10:10:00,
2013-07-09 06:15:00,78.6,78.6,30.08,East,97,0.0,0.0,100,0.00,,,0.16,9.0,meteohub,2013-07-09 10:15:00,
2013-07-09 06:20:00,78.6,78.6,30.08,East,97,0.0,0.0,100,0.00,,,0.16,9.0,meteohub,2013-07-09 10:20:00,
2013-07-09 06:25:00,78.6,78.6,30.08,East,99,0.0,0.0,100,0.00,,,0.16,5.0,meteohub,2013-07-09 10:25:00,
2013-07-09 06:30:00,78.8,78.8,30.09,East,97,0.0,0.0,100,0.00,,,0.17,9.0,meteohub,2013-07-09 10:30:00,
2013-07-09 06:35:00,78.8,78.8,30.09,East,97,0.0,0.0,100,0.02,,,0.18,9.0,meteohub,2013-07-09 10:35:00,
2013-07-09 06:40:00,79.0,79.0,30.09,East,86,0.0,0.0,100,0.02,,,0.18,18.0,meteohub,2013-07-09 10:40:00,
2013-07-09 06:45:00,79.0,79.0,30.09,ENE,69,0.0,0.0,100,0.03,,,0.19,55.0,meteohub,2013-07-09 10:45:00,
2013-07-09 06:50:00,79.0,79.0,30.09,East,83,0.0,7.0,100,0.03,,,0.19,44.0,meteohub,2013-07-09 10:50:00,
2013-07-09 06:55:00,79.0,79.0,30.09,East,88,0.0,7.0,100,0.03,,,0.19,55.0,meteohub,2013-07-09 10:55:00,
2013-07-09 07:00:00,79.2,79.2,30.09,East,92,0.0,7.0,100,0.03,,,0.19,56.0,meteohub,2013-07-09 11:00:00,
2013-07-09 07:05:00,79.2,79.2,30.09,East,92,0.0,0.0,100,0.03,,,0.19,70.0,meteohub,2013-07-09 11:05:00,
2013-07-09 07:10:00,79.3,79.3,30.09,ENE,76,0.0,3.0,100,0.03,,,0.19,79.0,meteohub,2013-07-09 11:10:00,
2013-07-09 07:15:00,79.3,79.3,30.09,ENE,72,0.0,6.0,100,0.03,,,0.19,90.0,meteohub,2013-07-09 11:15:00,
2013-07-09 07:20:00,79.3,79.3,30.09,ENE,61,0.0,7.0,100,0.03,,,0.19,58.0,meteohub,2013-07-09 11:20:00,
2013-07-09 07:25:00,79.5,79.5,30.09,East,85,0.0,7.0,100,0.02,,,0.19,67.0,meteohub,2013-07-09 11:25:00,
2013-07-09 07:30:00,79.9,79.9,30.10,East,83,0.0,7.0,100,0.02,,,0.19,86.0,meteohub,2013-07-09 11:30:00,
2013-07-09 07:35:00,79.9,79.9,30.10,East,86,4.0,7.0,100,0.01,,,0.19,144.0,meteohub,2013-07-09 11:35:00,
2013-07-09 07:40:00,80.1,80.1,30.10,East,80,0.0,5.0,100,0.00,,,0.19,91.0,meteohub,2013-07-09 11:40:00,
2013-07-09 07:45:00,80.2,80.2,30.11,East,79,0.0,8.0,100,0.00,,,0.19,32.0,meteohub,2013-07-09 11:45:00,
2013-07-09 07:50:00,80.2,80.2,30.11,ENE,73,0.0,10.0,100,0.00,,,0.19,18.0,meteohub,2013-07-09 11:50:00,
2013-07-09 07:55:00,80.2,80.2,30.11,ESE,123,9.0,10.0,100,0.00,,,0.19,70.0,meteohub,2013-07-09 11:55:00,
2013-07-09 08:01:00,79.9,79.9,30.12,ENE,62,3.0,21.0,100,0.05,,,0.23,104.0,meteohub,2013-07-09 12:01:00,
2013-07-09 08:05:00,79.5,79.5,30.12,East,80,11.0,21.0,100,0.05,,,0.24,171.0,meteohub,2013-07-09 12:05:00,
2013-07-09 08:10:00,79.0,79.0,30.12,East,79,2.0,21.0,100,0.07,,,0.26,227.0,meteohub,2013-07-09 12:10:00,
2013-07-09 08:15:00,79.0,79.0,30.12,ESE,106,0.0,14.0,100,0.07,,,0.26,225.0,meteohub,2013-07-09 12:15:00,
2013-07-09 08:21:00,79.0,79.0,30.12,ESE,107,0.0,14.0,100,0.07,,,0.26,230.0,meteohub,2013-07-09 12:21:00,
2013-07-09 08:25:00,79.2,79.2,30.12,ESE,110,0.0,11.0,100,0.07,,,0.26,264.0,meteohub,2013-07-09 12:25:00,
2013-07-09 08:31:00,79.5,79.5,30.12,ESE,112,0.0,1.0,100,0.07,,,0.26,375.0,meteohub,2013-07-09 12:31:00,
2013-07-09 08:36:00,80.1,80.1,30.12,ESE,110,0.0,1.0,100,0.07,,,0.26,581.0,meteohub,2013-07-09 12:36:00,
2013-07-09 08:41:00,80.8,80.8,30.12,ENE,72,0.0,6.0,100,0.07,,,0.26,667.0,meteohub,2013-07-09 12:41:00,
2013-07-09 08:46:00,80.8,80.8,30.12,East,99,3.0,6.0,100,0.07,,,0.26,667.0,meteohub,2013-07-09 12:46:00,
2013-07-09 08:51:00,81.0,81.0,30.12,ENE,71,0.0,7.0,100,0.07,,,0.26,282.0,meteohub,2013-07-09 12:51:00,
2013-07-09 08:56:00,81.1,81.1,30.12,ESE,104,3.0,8.0,100,0.05,,,0.26,243.0,meteohub,2013-07-09 12:56:00,
2013-07-09 09:01:00,81.1,81.1,30.12,ESE,114,7.0,10.0,100,0.02,,,0.26,93.0,meteohub,2013-07-09 13:01:00,
2013-07-09 09:06:00,81.1,81.1,30.12,East,79,0.0,10.0,100,0.04,,,0.29,127.0,meteohub,2013-07-09 13:06:00,
2013-07-09 09:11:00,80.8,80.8,30.12,ESE,110,0.0,10.0,100,0.09,,,0.35,134.0,meteohub,2013-07-09 13:11:00,
2013-07-09 09:16:00,80.4,80.4,30.12,SE,134,7.0,10.0,100,0.11,,,0.37,190.0,meteohub,2013-07-09 13:16:00,
2013-07-09 09:21:00,81.1,81.1,30.12,ENE,72,0.0,11.0,100,0.12,,,0.38,836.0,meteohub,2013-07-09 13:21:00,
2013-07-09 09:26:00,81.7,81.7,30.12,East,96,7.0,11.0,100,0.12,,,0.38,609.0,meteohub,2013-07-09 13:26:00,
2013-07-09 09:31:00,81.3,81.3,30.11,ENE,71,1.0,11.0,100,0.12,,,0.38,368.0,meteohub,2013-07-09 13:31:00,
2013-07-09 09:36:00,81.9,81.9,30.11,ESE,116,0.0,10.0,100,0.12,,,0.38,324.0,meteohub,2013-07-09 13:36:00,
2013-07-09 09:41:00,82.2,82.2,30.11,NE,56,7.0,10.0,100,0.12,,,0.38,345.0,meteohub,2013-07-09 13:41:00,
2013-07-09 09:46:00,82.0,82.0,30.11,ESE,102,4.0,12.0,100,0.12,,,0.38,517.0,meteohub,2013-07-09 13:46:00,
2013-07-09 09:51:00,82.4,82.4,30.11,ESE,104,15.0,15.0,100,0.12,,,0.38,408.0,meteohub,2013-07-09 13:51:00,
2013-07-09 09:56:00,82.8,82.8,30.11,ESE,102,13.0,15.0,100,0.12,,,0.38,408.0,meteohub,2013-07-09 13:56:00,
2013-07-09 10:01:00,83.5,83.5,30.12,East,82,7.0,15.0,100,0.12,,,0.38,505.0,meteohub,2013-07-09 14:01:00,
2013-07-09 10:06:00,83.8,83.3,30.12,ESE,104,6.0,15.0,98,0.07,,,0.38,512.0,meteohub,2013-07-09 14:06:00,
2013-07-09 10:11:00,84.0,83.1,30.12,East,99,6.0,14.0,97,0.03,,,0.38,843.0,meteohub,2013-07-09 14:11:00,
2013-07-09 10:16:00,84.6,83.3,30.11,ENE,78,1.0,14.0,96,0.00,,,0.38,843.0,meteohub,2013-07-09 14:16:00,
2013-07-09 10:21:00,84.7,83.1,30.11,East,86,6.0,16.0,95,0.00,,,0.38,795.0,meteohub,2013-07-09 14:21:00,
2013-07-09 10:26:00,85.1,82.8,30.11,East,99,9.0,16.0,93,0.00,,,0.38,370.0,meteohub,2013-07-09 14:26:00,
2013-07-09 10:31:00,85.3,82.9,30.11,ESE,103,0.0,16.0,93,0.00,,,0.38,732.0,meteohub,2013-07-09 14:31:00,
2013-07-09 10:36:00,85.5,82.9,30.11,East,89,12.0,14.0,92,0.00,,,0.38,702.0,meteohub,2013-07-09 14:36:00,
2013-07-09 10:41:00,85.5,82.6,30.11,ESE,104,10.0,19.0,91,0.00,,,0.38,718.0,meteohub,2013-07-09 14:41:00,
2013-07-09 10:47:00,85.6,82.4,30.11,East,100,11.0,19.0,90,0.00,,,0.38,389.0,meteohub,2013-07-09 14:47:00,
2013-07-09 10:52:00,85.6,82.4,30.11,East,88,16.0,19.0,90,0.00,,,0.38,368.0,meteohub,2013-07-09 14:52:00,
2013-07-09 10:57:00,85.5,81.9,30.11,East,88,11.0,19.0,89,0.00,,,0.38,389.0,meteohub,2013-07-09 14:57:00,
2013-07-09 11:02:00,85.8,82.2,30.11,East,95,6.0,19.0,89,0.00,,,0.38,391.0,meteohub,2013-07-09 15:02:00,
2013-07-09 11:07:00,85.8,82.2,30.11,ENE,61,7.0,19.0,89,0.00,,,0.38,326.0,meteohub,2013-07-09 15:07:00,
2013-07-09 11:12:00,85.5,81.5,30.11,East,88,10.0,17.0,88,0.00,,,0.38,405.0,meteohub,2013-07-09 15:12:00,
2013-07-09 11:17:00,85.5,81.1,30.11,East,86,11.0,17.0,87,0.00,,,0.38,538.0,meteohub,2013-07-09 15:17:00,
2013-07-09 11:22:00,85.3,81.3,30.11,East,82,19.0,21.0,88,0.00,,,0.38,431.0,meteohub,2013-07-09 15:22:00,
2013-07-09 11:27:00,85.3,81.3,30.11,East,95,10.0,21.0,88,0.00,,,0.38,509.0,meteohub,2013-07-09 15:27:00,
2013-07-09 11:32:00,85.6,82.0,30.11,East,80,7.0,19.0,89,0.00,,,0.38,655.0,meteohub,2013-07-09 15:32:00,
2013-07-09 11:37:00,85.8,81.9,30.11,ENE,75,7.0,19.0,88,0.00,,,0.38,600.0,meteohub,2013-07-09 15:37:00,
2013-07-09 11:42:00,86.4,82.4,30.10,East,83,6.0,20.0,88,0.00,,,0.38,598.0,meteohub,2013-07-09 15:42:00,
2013-07-09 11:47:00,86.5,82.2,30.10,East,83,11.0,20.0,87,0.00,,,0.38,598.0,meteohub,2013-07-09 15:47:00,
2013-07-09 11:52:00,86.5,82.2,30.10,ENE,75,3.0,20.0,87,0.00,,,0.38,903.0,meteohub,2013-07-09 15:52:00,
2013-07-09 11:57:00,86.7,82.4,30.10,East,89,6.0,20.0,87,0.00,,,0.38,371.0,meteohub,2013-07-09 15:57:00,
2013-07-09 12:03:00,86.7,82.8,30.10,East,90,12.0,17.0,88,0.00,,,0.38,406.0,meteohub,2013-07-09 16:03:00,
2013-07-09 12:08:00,87.3,82.9,30.10,NE,54,12.0,18.0,87,0.00,,,0.38,1103.0,meteohub,2013-07-09 16:08:00,
2013-07-09 12:13:00,87.3,82.9,30.10,East,80,10.0,21.0,87,0.00,,,0.38,1103.0,meteohub,2013-07-09 16:13:00,
2013-07-09 12:18:00,87.6,83.3,30.10,ENE,65,9.0,21.0,87,0.00,,,0.38,567.0,meteohub,2013-07-09 16:18:00,
2013-07-09 12:23:00,87.8,83.5,30.10,NE,54,11.0,21.0,87,0.00,,,0.38,364.0,meteohub,2013-07-09 16:23:00,
2013-07-09 12:28:00,87.4,83.1,30.10,East,80,11.0,20.0,87,0.00,,,0.38,582.0,meteohub,2013-07-09 16:28:00,
2013-07-09 12:33:00,87.3,83.3,30.10,ENE,59,8.0,20.0,88,0.00,,,0.38,463.0,meteohub,2013-07-09 16:33:00,
2013-07-09 12:38:00,87.1,83.1,30.10,ESE,103,13.0,20.0,88,0.00,,,0.38,892.0,meteohub,2013-07-09 16:38:00,
2013-07-09 12:43:00,86.7,83.1,30.10,East,92,10.0,20.0,89,0.00,,,0.38,343.0,meteohub,2013-07-09 16:43:00,
2013-07-09 12:48:00,86.2,82.9,30.10,East,96,12.0,20.0,90,0.00,,,0.38,334.0,meteohub,2013-07-09 16:48:00,
2013-07-09 12:53:00,86.4,83.1,30.10,ESE,112,10.0,18.0,90,0.00,,,0.38,1240.0,meteohub,2013-07-09 16:53:00,
2013-07-09 12:58:00,86.5,82.6,30.10,East,88,11.0,19.0,88,0.00,,,0.38,1094.0,meteohub,2013-07-09 16:58:00,
2013-07-09 13:03:00,86.7,82.4,30.10,NE,51,5.0,21.0,87,0.00,,,0.38,422.0,meteohub,2013-07-09 17:03:00,
2013-07-09 13:08:00,87.3,82.9,30.10,East,88,13.0,21.0,87,0.00,,,0.38,445.0,meteohub,2013-07-09 17:08:00,
2013-07-09 13:13:00,87.4,82.8,30.08,ESE,102,10.0,21.0,86,0.00,,,0.38,918.0,meteohub,2013-07-09 17:13:00,
2013-07-09 13:18:00,87.4,82.0,30.08,East,83,12.0,19.0,84,0.00,,,0.38,457.0,meteohub,2013-07-09 17:18:00,
2013-07-09 13:23:00,87.1,82.0,30.08,ENE,76,10.0,20.0,85,0.00,,,0.38,542.0,meteohub,2013-07-09 17:23:00,
2013-07-09 13:28:00,86.7,82.0,30.08,ENE,68,7.0,20.0,86,0.00,,,0.38,317.0,meteohub,2013-07-09 17:28:00,
2013-07-09 13:34:00,86.5,81.5,30.08,East,83,14.0,20.0,85,0.00,,,0.38,716.0,meteohub,2013-07-09 17:34:00,
2013-07-09 13:39:00,87.1,82.0,30.08,East,79,7.0,21.0,85,0.00,,,0.38,776.0,meteohub,2013-07-09 17:39:00,
2013-07-09 13:44:00,87.4,82.0,30.07,ENE,59,12.0,21.0,84,0.00,,,0.38,783.0,meteohub,2013-07-09 17:44:00,
2013-07-09 13:49:00,87.6,82.2,30.07,East,90,8.0,21.0,84,0.00,,,0.38,718.0,meteohub,2013-07-09 17:49:00,
2013-07-09 13:54:00,88.0,82.6,30.07,East,93,8.0,21.0,84,0.00,,,0.38,885.0,meteohub,2013-07-09 17:54:00,
2013-07-09 13:59:00,88.2,82.4,30.06,ENE,64,13.0,21.0,83,0.00,,,0.38,834.0,meteohub,2013-07-09 17:59:00,
2013-07-09 14:04:00,88.3,82.2,30.06,ENE,64,8.0,21.0,82,0.00,,,0.38,727.0,meteohub,2013-07-09 18:04:00,
2013-07-09 14:09:00,88.2,82.0,30.06,ESE,110,8.0,20.0,82,0.00,,,0.38,723.0,meteohub,2013-07-09 18:09:00,
2013-07-09 14:14:00,88.2,82.0,30.06,ESE,102,17.0,20.0,82,0.00,,,0.38,846.0,meteohub,2013-07-09 18:14:00,
2013-07-09 14:19:00,88.3,81.7,30.06,East,99,13.0,20.0,81,0.00,,,0.38,836.0,meteohub,2013-07-09 18:19:00,
2013-07-09 14:24:00,88.9,82.2,30.06,East,90,14.0,17.0,81,0.00,,,0.38,713.0,meteohub,2013-07-09 18:24:00,
2013-07-09 14:29:00,88.5,81.9,30.06,ENE,62,11.0,19.0,81,0.00,,,0.38,662.0,meteohub,2013-07-09 18:29:00,
2013-07-09 14:34:00,88.5,83.1,30.06,ENE,64,13.0,19.0,84,0.00,,,0.38,378.0,meteohub,2013-07-09 18:34:00,
2013-07-09 14:39:00,88.3,82.9,30.06,ENE,75,12.0,20.0,84,0.00,,,0.38,500.0,meteohub,2013-07-09 18:39:00,
2013-07-09 14:44:00,88.0,82.6,30.06,ESE,104,5.0,20.0,84,0.00,,,0.38,401.0,meteohub,2013-07-09 18:44:00,
2013-07-09 14:49:00,88.2,83.1,30.06,NE,48,10.0,22.0,85,0.00,,,0.38,785.0,meteohub,2013-07-09 18:49:00,
2013-07-09 14:54:00,88.3,82.9,30.06,ENE,64,10.0,22.0,84,0.00,,,0.38,785.0,meteohub,2013-07-09 18:54:00,
2013-07-09 14:59:00,88.5,83.1,30.05,ENE,59,7.0,22.0,84,0.00,,,0.38,785.0,meteohub,2013-07-09 18:59:00,
2013-07-09 15:04:00,88.5,83.1,30.05,ESE,103,8.0,17.0,84,0.00,,,0.38,396.0,meteohub,2013-07-09 19:04:00,
2013-07-09 15:09:00,88.3,82.9,30.05,ENE,69,8.0,17.0,84,0.00,,,0.38,776.0,meteohub,2013-07-09 19:09:00,
2013-07-09 15:14:00,88.2,82.8,30.05,East,88,7.0,15.0,84,0.00,,,0.38,350.0,meteohub,2013-07-09 19:14:00,
2013-07-09 15:20:00,87.8,82.4,30.05,ESE,103,8.0,17.0,84,0.00,,,0.38,324.0,meteohub,2013-07-09 19:20:00,
2013-07-09 15:25:00,88.0,82.9,30.05,ENE,78,3.0,19.0,85,0.00,,,0.38,308.0,meteohub,2013-07-09 19:25:00,
2013-07-09 15:30:00,88.0,82.9,30.05,ENE,75,6.0,19.0,85,0.00,,,0.38,804.0,meteohub,2013-07-09 19:30:00,
2013-07-09 15:35:00,87.8,82.4,30.05,East,92,5.0,19.0,84,0.00,,,0.38,804.0,meteohub,2013-07-09 19:35:00,
2013-07-09 15:40:00,87.6,82.6,30.05,East,82,12.0,19.0,85,0.00,,,0.38,315.0,meteohub,2013-07-09 19:40:00,
2013-07-09 15:45:00,87.3,82.6,30.05,East,80,13.0,19.0,86,0.00,,,0.38,250.0,meteohub,2013-07-09 19:45:00,
2013-07-09 15:50:00,86.7,82.0,30.05,East,80,4.0,19.0,86,0.00,,,0.38,199.0,meteohub,2013-07-09 19:50:00,
2013-07-09 15:55:00,86.7,82.4,30.05,NNE,25,8.0,19.0,87,0.00,,,0.38,127.0,meteohub,2013-07-09 19:55:00,
2013-07-09 16:00:00,86.5,82.2,30.05,East,97,5.0,19.0,87,0.00,,,0.38,150.0,meteohub,2013-07-09 20:00:00,
2013-07-09 16:05:00,85.8,81.5,30.05,ESE,104,7.0,21.0,87,0.00,,,0.38,202.0,meteohub,2013-07-09 20:05:00,
2013-07-09 16:10:00,85.6,81.7,30.05,East,82,6.0,21.0,88,0.00,,,0.38,236.0,meteohub,2013-07-09 20:10:00,
2013-07-09 16:15:00,85.6,82.0,30.05,SE,128,13.0,21.0,89,0.00,,,0.38,357.0,meteohub,2013-07-09 20:15:00,
2013-07-09 16:20:00,85.8,82.2,30.05,East,100,10.0,18.0,89,0.00,,,0.38,299.0,meteohub,2013-07-09 20:20:00,
2013-07-09 16:25:00,85.8,82.6,30.05,East,93,8.0,17.0,90,0.00,,,0.38,310.0,meteohub,2013-07-09 20:25:00,
2013-07-09 16:30:00,86.2,82.9,30.04,East,92,6.0,16.0,90,0.00,,,0.38,162.0,meteohub,2013-07-09 20:30:00,
2013-07-09 16:35:00,85.8,82.6,30.04,East,90,10.0,16.0,90,0.00,,,0.38,125.0,meteohub,2013-07-09 20:35:00,
2013-07-09 16:40:00,85.5,82.2,30.04,ENE,68,9.0,14.0,90,0.00,,,0.38,194.0,meteohub,2013-07-09 20:40:00,
2013-07-09 16:45:00,85.3,81.7,30.04,East,95,13.0,19.0,89,0.00,,,0.38,187.0,meteohub,2013-07-09 20:45:00,
2013-07-09 16:50:00,85.1,81.5,30.04,East,89,11.0,22.0,89,0.00,,,0.38,158.0,meteohub,2013-07-09 20:50:00,
2013-07-09 16:55:00,84.9,81.3,30.04,East,92,12.0,24.0,89,0.00,,,0.38,148.0,meteohub,2013-07-09 20:55:00,
2013-07-09 17:00:00,84.9,81.3,30.05,East,88,13.0,24.0,89,0.00,,,0.38,121.0,meteohub,2013-07-09 21:00:00,
2013-07-09 17:05:00,84.9,81.7,30.05,NE,55,8.0,24.0,90,0.00,,,0.38,134.0,meteohub,2013-07-09 21:05:00,
2013-07-09 17:10:00,84.7,81.5,30.05,East,95,3.0,21.0,90,0.00,,,0.38,109.0,meteohub,2013-07-09 21:10:00,
2013-07-09 17:15:00,84.6,81.3,30.05,ESE,106,7.0,21.0,90,0.00,,,0.38,120.0,meteohub,2013-07-09 21:15:00,
2013-07-09 17:20:00,84.6,81.7,30.05,ESE,110,19.0,25.0,91,0.00,,,0.38,116.0,meteohub,2013-07-09 21:20:00,
2013-07-09 17:25:00,84.4,81.5,30.05,East,93,10.0,25.0,91,0.00,,,0.38,118.0,meteohub,2013-07-09 21:25:00,
2013-07-09 17:30:00,84.4,81.9,30.05,ESE,106,5.0,25.0,92,0.00,,,0.38,121.0,meteohub,2013-07-09 21:30:00,
2013-07-09 17:35:00,84.4,81.9,30.05,East,97,6.0,22.0,92,0.00,,,0.38,121.0,meteohub,2013-07-09 21:35:00,
2013-07-09 17:40:00,84.6,82.0,30.05,East,80,11.0,19.0,92,0.00,,,0.38,132.0,meteohub,2013-07-09 21:40:00,
2013-07-09 17:45:00,84.4,81.9,30.05,ENE,71,8.0,20.0,92,0.00,,,0.38,123.0,meteohub,2013-07-09 21:45:00,
2013-07-09 17:50:00,84.4,81.9,30.05,East,93,7.0,20.0,92,0.00,,,0.38,95.0,meteohub,2013-07-09 21:50:00,
2013-07-09 17:55:00,84.4,81.9,30.05,ENE,61,11.0,21.0,92,0.00,,,0.38,72.0,meteohub,2013-07-09 21:55:00,
2013-07-09 18:00:00,84.0,81.5,30.05,ESE,117,13.0,21.0,92,0.00,,,0.38,90.0,meteohub,2013-07-09 22:00:00,
2013-07-09 18:05:00,84.0,81.5,30.05,East,83,7.0,18.0,92,0.00,,,0.38,77.0,meteohub,2013-07-09 22:05:00,
2013-07-09 18:10:00,84.0,81.9,30.05,ENE,69,8.0,18.0,93,0.00,,,0.38,76.0,meteohub,2013-07-09 22:10:00,
2013-07-09 18:16:00,84.0,81.9,30.05,ESE,104,12.0,18.0,93,0.00,,,0.38,67.0,meteohub,2013-07-09 22:16:00,
2013-07-09 18:21:00,83.8,81.7,30.05,East,96,13.0,18.0,93,0.00,,,0.38,77.0,meteohub,2013-07-09 22:21:00,
2013-07-09 18:26:00,83.8,81.9,30.05,East,93,16.0,19.0,94,0.00,,,0.38,100.0,meteohub,2013-07-09 22:26:00,
2013-07-09 18:31:00,83.8,81.9,30.05,NE,35,3.0,19.0,94,0.00,,,0.38,63.0,meteohub,2013-07-09 22:31:00,
2013-07-09 18:36:00,83.8,81.9,30.05,ENE,71,3.0,19.0,94,0.00,,,0.38,48.0,meteohub,2013-07-09 22:36:00,
2013-07-09 18:41:00,83.8,82.2,30.05,ENE,69,12.0,19.0,95,0.00,,,0.38,26.0,meteohub,2013-07-09 22:41:00,
2013-07-09 18:46:00,83.7,82.0,30.05,ENE,72,5.0,16.0,95,0.00,,,0.38,37.0,meteohub,2013-07-09 22:46:00,
2013-07-09 18:51:00,83.7,82.0,30.05,East,82,3.0,16.0,95,0.00,,,0.38,11.0,meteohub,2013-07-09 22:51:00,
2013-07-09 18:56:00,83.5,82.2,30.05,East,90,5.0,17.0,96,0.00,,,0.38,0.0,meteohub,2013-07-09 22:56:00,
2013-07-09 19:01:00,83.5,82.2,30.05,ENE,72,11.0,17.0,96,0.00,,,0.38,0.0,meteohub,2013-07-09 23:01:00,
2013-07-09 19:06:00,83.1,81.9,30.05,ENE,76,5.0,16.0,96,0.00,,,0.38,0.0,meteohub,2013-07-09 23:06:00,
2013-07-09 19:11:00,83.1,81.9,30.05,ESE,114,6.0,17.0,96,0.00,,,0.38,0.0,meteohub,2013-07-09 23:11:00,
2013-07-09 19:16:00,83.1,81.9,30.05,East,93,10.0,17.0,96,0.00,,,0.38,0.0,meteohub,2013-07-09 23:16:00,
2013-07-09 19:21:00,83.1,81.9,30.05,ENE,76,6.0,17.0,96,0.00,,,0.38,0.0,meteohub,2013-07-09 23:21:00,
2013-07-09 19:26:00,83.1,81.9,30.05,NE,34,8.0,16.0,96,0.00,,,0.38,0.0,meteohub,2013-07-09 23:26:00,
2013-07-09 19:31:00,82.9,81.7,30.05,ESE,106,6.0,16.0,96,0.00,,,0.38,0.0,meteohub,2013-07-09 23:31:00,
2013-07-09 19:36:00,82.9,81.7,30.05,ENE,59,4.0,17.0,96,0.00,,,0.38,0.0,meteohub,2013-07-09 23:36:00,
2013-07-09 19:41:00,82.9,81.7,30.05,ENE,58,10.0,17.0,96,0.00,,,0.38,0.0,meteohub,2013-07-09 23:41:00,
2013-07-09 19:42:00,82.9,81.7,30.05,ENE,59,8.0,17.0,96,0.00,,,0.38,0.0,meteohub,2013-07-09 23:42:00,
2013-07-09 19:47:00,82.9,81.7,30.06,ENE,76,4.0,14.0,96,0.00,,,0.38,0.0,meteohub,2013-07-09 23:47:00,
2013-07-09 19:52:00,82.9,81.7,30.06,NE,44,9.0,14.0,96,0.00,,,0.38,0.0,meteohub,2013-07-09 23:52:00,
2013-07-09 19:57:00,82.9,81.7,30.06,East,100,8.0,14.0,96,0.00,,,0.38,0.0,meteohub,2013-07-09 23:57:00,
2013-07-09 20:02:00,82.9,82.0,30.06,East,82,12.0,14.0,97,0.00,,,0.38,0.0,meteohub,2013-07-10 00:02:00,
2013-07-09 20:07:00,82.9,82.0,30.06,ENE,59,2.0,17.0,97,0.00,,,0.38,0.0,meteohub,2013-07-10 00:07:00,
2013-07-09 20:12:00,82.9,82.0,30.06,ENE,69,6.0,17.0,97,0.00,,,0.38,0.0,meteohub,2013-07-10 00:12:00,
2013-07-09 20:17:00,82.8,81.9,30.06,East,92,8.0,17.0,97,0.00,,,0.38,0.0,meteohub,2013-07-10 00:17:00,
2013-07-09 20:22:00,82.8,81.9,30.06,ENE,69,9.0,16.0,97,0.00,,,0.38,0.0,meteohub,2013-07-10 00:22:00,
2013-07-09 20:27:00,82.8,82.2,30.06,ESE,116,2.0,16.0,98,0.00,,,0.38,0.0,meteohub,2013-07-10 00:27:00,
2013-07-09 20:32:00,82.8,82.2,30.06,ENE,75,0.0,12.0,98,0.00,,,0.38,0.0,meteohub,2013-07-10 00:32:00,
2013-07-09 20:37:00,82.8,82.2,30.06,ENE,65,3.0,16.0,98,0.00,,,0.38,0.0,meteohub,2013-07-10 00:37:00,
2013-07-09 20:42:00,82.6,82.0,30.06,East,85,7.0,16.0,98,0.00,,,0.38,0.0,meteohub,2013-07-10 00:42:00,
2013-07-09 20:47:00,82.6,82.0,30.06,ENE,71,2.0,16.0,98,0.00,,,0.38,0.0,meteohub,2013-07-10 00:47:00,
2013-07-09 20:52:00,82.6,82.0,30.06,East,85,8.0,12.0,98,0.00,,,0.38,0.0,meteohub,2013-07-10 00:52:00,
2013-07-09 20:57:00,82.6,82.0,30.06,East,96,7.0,16.0,98,0.00,,,0.38,0.0,meteohub,2013-07-10 00:57:00,
2013-07-09 21:02:00,82.6,82.0,30.07,East,97,13.0,18.0,98,0.00,,,0.38,0.0,meteohub,2013-07-10 01:02:00,
2013-07-09 21:07:00,82.6,82.0,30.07,East,85,11.0,19.0,98,0.00,,,0.38,0.0,meteohub,2013-07-10 01:07:00,
2013-07-09 21:12:00,82.4,81.9,30.06,ESE,107,6.0,19.0,98,0.00,,,0.38,0.0,meteohub,2013-07-10 01:12:00,
2013-07-09 21:17:00,82.2,81.7,30.06,ENE,76,4.0,19.0,98,0.00,,,0.38,0.0,meteohub,2013-07-10 01:17:00,
2013-07-09 21:22:00,82.2,81.9,30.06,ENE,76,2.0,18.0,99,0.00,,,0.38,0.0,meteohub,2013-07-10 01:22:00,
2013-07-09 21:27:00,82.2,81.9,30.07,East,83,6.0,18.0,99,0.00,,,0.38,0.0,meteohub,2013-07-10 01:27:00,
2013-07-09 21:32:00,82.0,81.7,30.07,ESE,114,4.0,18.0,99,0.00,,,0.38,0.0,meteohub,2013-07-10 01:32:00,
2013-07-09 21:37:00,82.0,81.7,30.07,SE,145,10.0,17.0,99,0.00,,,0.38,0.0,meteohub,2013-07-10 01:37:00,
2013-07-09 21:42:00,82.2,81.9,30.08,SE,137,0.0,17.0,99,0.00,,,0.38,0.0,meteohub,2013-07-10 01:42:00,
2013-07-09 21:47:00,82.2,82.2,30.08,SE,128,11.0,17.0,100,0.01,,,0.39,0.0,meteohub,2013-07-10 01:47:00,
2013-07-09 22:50:00,79.9,79.9,30.10,SSE,147,5.0,8.0,100,0.14,,,0.53,0.0,meteohub,2013-07-10 02:50:00,
2013-07-09 22:55:00,77.9,77.9,30.10,SE,126,6.0,19.0,100,0.07,,,0.53,0.0,meteohub,2013-07-10 02:55:00,
2013-07-09 23:00:00,76.6,76.6,30.12,ESE,120,5.0,22.0,100,0.01,,,0.54,0.0,meteohub,2013-07-10 03:00:00,
2013-07-09 23:05:00,76.1,75.7,30.12,South,174,1.0,22.0,99,0.06,,,0.59,0.0,meteohub,2013-07-10 03:05:00,
2013-07-09 23:10:00,75.6,75.2,30.12,SSE,152,1.0,22.0,99,0.09,,,0.63,0.0,meteohub,2013-07-10 03:10:00,
2013-07-09 23:15:00,75.4,75.0,30.09,South,175,1.0,15.0,99,0.10,,,0.64,0.0,meteohub,2013-07-10 03:15:00,
2013-07-09 23:20:00,75.0,74.7,30.09,South,171,1.0,7.0,99,0.11,,,0.64,0.0,meteohub,2013-07-10 03:20:00,
2013-07-09 23:25:00,75.4,75.4,30.09,SSE,147,1.0,6.0,100,0.11,,,0.64,0.0,meteohub,2013-07-10 03:25:00,
2013-07-09 23:30:00,75.4,75.4,30.10,SSE,154,1.0,5.0,100,0.11,,,0.64,0.0,meteohub,2013-07-10 03:30:00,
2013-07-09 23:35:00,75.4,75.4,30.10,SSE,164,0.0,5.0,100,0.11,,,0.64,0.0,meteohub,2013-07-10 03:35:00,
2013-07-09 23:40:00,75.4,75.4,30.10,SSE,164,0.0,2.0,100,0.11,,,0.64,0.0,meteohub,2013-07-10 03:40:00,
2013-07-09 23:45:00,75.4,75.4,30.09,South,191,0.0,2.0,100,0.11,,,0.64,0.0,meteohub,2013-07-10 03:45:00,
2013-07-09 23:50:00,75.4,75.4,30.09,South,191,0.0,1.0,100,0.11,,,0.64,0.0,meteohub,2013-07-10 03:50:00,
2013-07-09 23:55:00,75.4,75.4,30.09,SSW,193,0.0,1.0,100,0.08,,,0.64,0.0,meteohub,2013-07-10 03:55:00,